Time;durP1;ratioP1;P1;durP2;ratioP2;P2;SDS_P1;SDS_P2;PMS_P1;PMS_P2;Temp;Humidity;BMP_temperature;BMP_pressure;BME280_temperature;BME280_humidity;BME280_pressure;Samples;Min_cycle;Max_cycle;Signal;HPM_P1;HPM_P2
2024/02/16 00:00:25;;;;;;;10.27;5.70;;;12.50;99.90;;;;;;5012143;28;20069;-51
2024/02/16 00:02:51;;;;;;;7.72;5.03;;;12.50;99.90;;;;;;5012244;28;20140;-46
2024/02/16 00:05:16;;;;;;;11.80;5.45;;;12.50;99.90;;;;;;5012334;28;20113;-41
2024/02/16 00:07:42;;;;;;;9.38;5.40;;;12.50;99.90;;;;;;5010356;28;20426;-46
2024/02/16 00:10:14;;;;;;;7.95;5.38;;;12.50;99.90;;;;;;5010797;28;20121;-43
2024/02/16 00:12:40;;;;;;;8.38;6.32;;;12.40;99.90;;;;;;5011566;28;20101;-46
2024/02/16 00:15:06;;;;;;;7.80;5.43;;;12.40;99.90;;;;;;5011613;28;20168;-48
2024/02/16 00:17:33;;;;;;;10.15;5.35;;;12.40;99.90;;;;;;4994839;28;20034;-46
2024/02/16 00:19:59;;;;;;;9.93;5.15;;;12.40;99.90;;;;;;5012164;28;20018;-49
2024/02/16 00:22:24;;;;;;;13.13;5.22;;;12.30;99.90;;;;;;5011603;28;20036;-47
2024/02/16 00:24:50;;;;;;;9.90;5.50;;;12.30;99.90;;;;;;5011134;28;20026;-48
2024/02/16 00:27:16;;;;;;;6.40;4.95;;;12.40;99.90;;;;;;5011152;28;20026;-49
2024/02/16 00:29:42;;;;;;;10.65;5.00;;;12.30;99.90;;;;;;5011678;28;20116;-45
2024/02/16 00:32:08;;;;;;;10.70;5.72;;;12.40;99.90;;;;;;5010908;28;20108;-48
2024/02/16 00:34:35;;;;;;;11.43;5.75;;;12.30;99.90;;;;;;5010824;28;20058;-45
2024/02/16 00:37:01;;;;;;;9.23;5.15;;;12.40;99.90;;;;;;5011329;28;20112;-44
2024/02/16 00:39:26;;;;;;;6.20;5.15;;;12.40;99.90;;;;;;5011568;28;20033;-51
2024/02/16 00:41:52;;;;;;;9.23;4.55;;;12.40;99.90;;;;;;5011960;28;20034;-45
2024/02/16 00:44:17;;;;;;;9.30;5.13;;;12.40;99.90;;;;;;5011660;28;20041;-45
2024/02/16 00:46:44;;;;;;;8.07;4.85;;;12.40;99.90;;;;;;5011777;28;20033;-45
2024/02/16 00:49:12;;;;;;;7.32;4.68;;;12.50;99.90;;;;;;5011334;28;20046;-44
2024/02/16 00:51:39;;;;;;;10.18;4.80;;;12.60;99.90;;;;;;5011642;28;20060;-44
2024/02/16 00:54:04;;;;;;;10.18;5.88;;;12.50;99.90;;;;;;5009803;28;20048;-44
2024/02/16 00:56:32;;;;;;;12.60;5.20;;;12.70;99.90;;;;;;5011259;28;20114;-45
2024/02/16 00:58:57;;;;;;;10.27;5.13;;;12.70;99.90;;;;;;5012789;28;20495;-53
2024/02/16 01:01:24;;;;;;;8.93;5.03;;;12.60;99.90;;;;;;5011770;28;20040;-52
2024/02/16 01:03:51;;;;;;;7.20;4.90;;;12.60;99.90;;;;;;5026815;23;20050;-52
2024/02/16 01:06:17;;;;;;;7.65;4.68;;;12.60;99.90;;;;;;5013633;28;20022;-52
2024/02/16 01:08:43;;;;;;;6.95;4.55;;;12.60;99.90;;;;;;5012436;28;20081;-50
2024/02/16 01:11:08;;;;;;;7.65;4.45;;;12.60;99.90;;;;;;5012570;28;20087;-51
2024/02/16 01:13:34;;;;;;;39.55;22.25;;;12.60;99.90;;;;;;5007672;28;20027;-49
2024/02/16 01:15:59;;;;;;;28.08;16.33;;;12.60;99.90;;;;;;4994034;28;20381;-52
2024/02/16 01:18:27;;;;;;;12.75;5.70;;;12.60;99.90;;;;;;4994109;28;20404;-53
2024/02/16 01:20:53;;;;;;;7.65;4.60;;;12.60;99.90;;;;;;4994076;28;20042;-54
2024/02/16 01:23:19;;;;;;;8.95;5.30;;;12.60;99.90;;;;;;4993771;28;20026;-52
2024/02/16 01:25:46;;;;;;;8.32;5.15;;;12.60;99.90;;;;;;4994233;28;20102;-51
2024/02/16 01:28:12;;;;;;;13.82;5.28;;;12.60;99.90;;;;;;4993906;28;20169;-50
2024/02/16 01:30:38;;;;;;;7.70;4.18;;;12.60;99.90;;;;;;4976419;28;20117;-51
2024/02/16 01:33:04;;;;;;;6.85;3.80;;;12.50;99.90;;;;;;4993844;28;20105;-49
2024/02/16 01:35:30;;;;;;;5.85;3.50;;;12.50;99.90;;;;;;4993759;28;20033;-53
2024/02/16 01:37:55;;;;;;;7.90;4.25;;;12.50;99.90;;;;;;4993730;28;20030;-53
2024/02/16 01:40:21;;;;;;;8.85;4.15;;;12.50;99.90;;;;;;4993432;28;20027;-49
2024/02/16 01:42:47;;;;;;;4.75;4.10;;;12.40;99.90;;;;;;4976107;28;20077;-54
2024/02/16 01:45:13;;;;;;;7.95;3.03;;;12.40;99.90;;;;;;4993436;28;20030;-51
2024/02/16 01:47:42;;;;;;;6.05;3.90;;;12.30;99.90;;;;;;4993745;28;20030;-53
2024/02/16 01:50:09;;;;;;;6.60;3.92;;;12.30;99.90;;;;;;4993481;28;20105;-50
2024/02/16 01:52:36;;;;;;;10.82;4.03;;;12.30;99.90;;;;;;4993434;28;20037;-50
2024/02/16 01:55:14;;;;;;;8.23;4.10;;;12.20;99.90;;;;;;4975762;28;20062;-52
2024/02/16 01:57:42;;;;;;;5.90;3.50;;;12.20;99.90;;;;;;4993585;28;20038;-52
2024/02/16 02:00:08;;;;;;;6.25;4.38;;;12.20;99.90;;;;;;4993368;28;20023;-52
2024/02/16 02:02:36;;;;;;;8.48;4.38;;;12.20;99.90;;;;;;4993291;28;20026;-51
2024/02/16 02:05:06;;;;;;;8.90;4.22;;;12.10;99.90;;;;;;4992515;28;20407;-48
2024/02/16 02:07:31;;;;;;;8.25;3.78;;;12.10;99.90;;;;;;4993287;28;20056;-52
2024/02/16 02:09:57;;;;;;;8.52;4.45;;;12.10;99.90;;;;;;4993252;28;20062;-50
2024/02/16 02:12:22;;;;;;;7.95;5.03;;;12.10;99.90;;;;;;4993218;28;20566;-54
2024/02/16 02:14:51;;;;;;;11.68;4.38;;;12.00;99.90;;;;;;4992726;28;20026;-50
2024/02/16 02:17:17;;;;;;;5.55;3.92;;;12.00;99.90;;;;;;4975661;28;20030;-51
2024/02/16 02:19:43;;;;;;;9.32;4.03;;;12.00;99.90;;;;;;4993111;28;20062;-50
2024/02/16 02:22:18;;;;;;;8.63;3.67;;;12.00;99.90;;;;;;4993199;28;20058;-51
2024/02/16 02:24:45;;;;;;;11.00;4.75;;;12.00;99.90;;;;;;4992779;28;20076;-49
2024/02/16 02:27:11;;;;;;;7.95;4.22;;;12.10;99.90;;;;;;4992830;28;20023;-49
2024/02/16 02:29:37;;;;;;;7.65;4.15;;;12.00;99.90;;;;;;4992801;28;20034;-49
2024/02/16 02:32:03;;;;;;;6.95;4.65;;;12.00;99.90;;;;;;4992758;28;20425;-51
2024/02/16 02:34:29;;;;;;;4.80;3.88;;;12.00;99.90;;;;;;4992582;28;20033;-50
2024/02/16 02:36:54;;;;;;;5.70;3.17;;;12.00;99.90;;;;;;4992523;28;20023;-54
2024/02/16 02:39:20;;;;;;;11.88;4.18;;;11.90;99.90;;;;;;4992675;28;20048;-52
2024/02/16 02:41:45;;;;;;;9.57;3.58;;;11.90;99.90;;;;;;4992374;28;20462;-51
2024/02/16 02:44:11;;;;;;;4.53;3.58;;;12.00;99.90;;;;;;4992767;28;20436;-52
2024/02/16 02:46:37;;;;;;;6.45;3.92;;;12.00;99.90;;;;;;4992442;28;20491;-51
2024/02/16 02:49:03;;;;;;;8.10;3.33;;;12.00;99.90;;;;;;4992546;28;20157;-49
2024/02/16 02:51:29;;;;;;;5.10;3.55;;;12.00;99.90;;;;;;4992440;28;20033;-52
2024/02/16 02:53:55;;;;;;;5.00;3.42;;;12.00;99.90;;;;;;4992249;28;20026;-51
2024/02/16 02:56:20;;;;;;;6.03;4.13;;;12.00;99.90;;;;;;4992159;28;20107;-52
2024/02/16 02:58:45;;;;;;;8.75;3.83;;;12.00;99.90;;;;;;4992332;28;20042;-53
2024/02/16 03:01:12;;;;;;;6.40;4.00;;;12.00;99.90;;;;;;4992316;28;20511;-51
2024/02/16 03:03:38;;;;;;;5.57;4.25;;;12.00;99.90;;;;;;4992171;28;20023;-51
2024/02/16 03:06:04;;;;;;;4.47;3.70;;;12.00;99.90;;;;;;4992086;28;20106;-49
2024/02/16 03:08:30;;;;;;;7.35;4.45;;;12.00;99.90;;;;;;4992258;28;20023;-48
2024/02/16 03:10:55;;;;;;;4.90;3.97;;;12.00;99.90;;;;;;4992112;28;20084;-51
2024/02/16 03:13:21;;;;;;;9.80;4.45;;;12.00;99.90;;;;;;4992020;28;20116;-51
2024/02/16 03:15:46;;;;;;;11.07;4.55;;;12.00;99.90;;;;;;4991333;28;20026;-52
2024/02/16 03:18:13;;;;;;;9.70;4.50;;;12.10;99.90;;;;;;4974614;28;20095;-49
2024/02/16 03:20:38;;;;;;;7.07;4.43;;;12.10;99.90;;;;;;4991952;28;20018;-52
2024/02/16 03:23:04;;;;;;;7.22;4.00;;;12.10;99.90;;;;;;4991929;28;20364;-48
2024/02/16 03:25:30;;;;;;;11.50;4.93;;;12.10;99.90;;;;;;4991743;28;20027;-49
2024/02/16 03:27:56;;;;;;;7.65;4.63;;;12.00;99.90;;;;;;4992061;28;20026;-51
2024/02/16 03:30:22;;;;;;;6.22;4.28;;;12.00;99.90;;;;;;4991943;28;20050;-52
2024/02/16 03:32:50;;;;;;;11.75;4.50;;;12.00;99.90;;;;;;4992021;28;20207;-52
2024/02/16 03:35:16;;;;;;;6.53;4.80;;;12.00;99.90;;;;;;4991667;28;20508;-50
2024/02/16 03:37:42;;;;;;;10.60;4.88;;;12.00;99.90;;;;;;4991971;28;20030;-54
2024/02/16 03:40:09;;;;;;;8.88;5.25;;;12.00;99.90;;;;;;4991471;28;20578;-49
2024/02/16 03:42:35;;;;;;;9.02;4.70;;;12.00;99.90;;;;;;4991796;28;20019;-49
2024/02/16 03:45:01;;;;;;;10.75;4.30;;;12.00;99.90;;;;;;4991526;28;20526;-52
2024/02/16 03:47:27;;;;;;;7.63;4.65;;;12.00;99.90;;;;;;4991808;28;20015;-53
2024/02/16 03:49:52;;;;;;;7.28;5.03;;;12.00;99.90;;;;;;4991843;28;20476;-50
2024/02/16 03:52:18;;;;;;;6.18;4.55;;;12.00;99.90;;;;;;4991597;28;20035;-50
2024/02/16 03:54:47;;;;;;;8.77;5.60;;;12.10;99.90;;;;;;4991758;28;20029;-50
2024/02/16 03:57:13;;;;;;;5.55;4.10;;;12.10;99.90;;;;;;4991781;28;20476;-52
2024/02/16 03:59:39;;;;;;;6.97;4.68;;;11.90;99.90;;;;;;4991792;28;20109;-52
2024/02/16 04:02:04;;;;;;;5.45;4.10;;;11.90;99.90;;;;;;4991712;28;20041;-51
2024/02/16 04:04:30;;;;;;;13.65;4.80;;;11.80;99.90;;;;;;4991639;28;20038;-51
2024/02/16 04:06:55;;;;;;;8.95;5.85;;;11.80;99.90;;;;;;4991592;28;20436;-51
2024/02/16 04:09:21;;;;;;;8.98;4.72;;;11.90;99.90;;;;;;4991645;28;20037;-47
2024/02/16 04:11:46;;;;;;;11.15;5.00;;;12.00;99.90;;;;;;4991583;28;20562;-50
2024/02/16 04:14:12;;;;;;;11.88;5.45;;;12.00;99.90;;;;;;4991620;28;20041;-53
2024/02/16 04:16:37;;;;;;;9.40;5.53;;;12.00;99.90;;;;;;4991430;28;20027;-49
2024/02/16 04:19:03;;;;;;;8.32;5.32;;;12.00;99.90;;;;;;4991563;28;20086;-50
2024/02/16 04:21:28;;;;;;;12.60;4.97;;;11.90;99.90;;;;;;4991791;28;20018;-52
2024/02/16 04:23:54;;;;;;;9.52;5.35;;;11.80;99.90;;;;;;4991477;28;20022;-53
2024/02/16 04:26:20;;;;;;;7.70;5.53;;;11.80;99.90;;;;;;4991393;28;20026;-52
2024/02/16 04:28:45;;;;;;;8.65;4.70;;;11.70;99.90;;;;;;4994968;28;20022;-51
2024/02/16 04:31:11;;;;;;;6.85;4.45;;;11.60;99.90;;;;;;4995454;28;20116;-50
2024/02/16 04:33:37;;;;;;;11.95;4.80;;;11.60;99.90;;;;;;4995084;28;20026;-52
2024/02/16 04:36:07;;;;;;;7.95;5.05;;;11.60;99.90;;;;;;4995333;28;20022;-53
2024/02/16 04:38:32;;;;;;;9.10;5.70;;;11.60;99.90;;;;;;4995687;28;20535;-52
2024/02/16 04:40:58;;;;;;;10.75;5.05;;;11.60;99.90;;;;;;4995283;28;20078;-49
2024/02/16 04:43:25;;;;;;;9.73;4.93;;;11.60;99.90;;;;;;4995073;28;20472;-51
2024/02/16 04:45:50;;;;;;;11.68;4.65;;;11.60;99.90;;;;;;4994784;28;20427;-51
2024/02/16 04:48:16;;;;;;;9.75;4.70;;;11.60;99.90;;;;;;4994893;28;20022;-49
2024/02/16 04:50:41;;;;;;;7.35;4.60;;;11.60;99.90;;;;;;4995086;28;20058;-49
2024/02/16 04:53:07;;;;;;;9.40;4.50;;;11.60;99.90;;;;;;4995057;28;20022;-51
2024/02/16 04:55:33;;;;;;;8.82;4.93;;;11.60;99.90;;;;;;4994899;28;20073;-52
2024/02/16 04:57:59;;;;;;;5.82;4.18;;;11.60;99.90;;;;;;4995176;28;20443;-49
2024/02/16 05:00:25;;;;;;;9.13;5.05;;;11.60;99.90;;;;;;4994726;28;20031;-50
2024/02/16 05:02:53;;;;;;;9.15;4.93;;;11.60;99.90;;;;;;4994769;28;20061;-52
2024/02/16 05:05:19;;;;;;;6.68;4.53;;;11.70;99.90;;;;;;4994679;28;20048;-51
2024/02/16 05:07:54;;;;;;;15.43;5.50;;;11.80;99.90;;;;;;4977452;28;20018;-53
2024/02/16 05:10:19;;;;;;;10.10;4.93;;;11.70;99.90;;;;;;4994878;28;20041;-51
2024/02/16 05:12:45;;;;;;;10.68;6.57;;;11.80;99.90;;;;;;4995043;28;20265;-50
2024/02/16 05:15:13;;;;;;;11.63;5.50;;;11.80;99.90;;;;;;4994680;28;20032;-52
2024/02/16 05:17:39;;;;;;;7.13;4.47;;;11.80;99.90;;;;;;4994898;28;20030;-50
2024/02/16 05:20:14;;;;;;;13.07;5.63;;;11.70;99.90;;;;;;4995107;28;20029;-53
2024/02/16 05:22:45;;;;;;;4.88;4.28;;;11.70;99.90;;;;;;4995176;28;20384;-52
2024/02/16 05:25:13;;;;;;;11.55;5.78;;;11.60;99.90;;;;;;4976991;28;20109;-53
2024/02/16 05:27:39;;;;;;;9.68;5.30;;;11.60;99.90;;;;;;4995478;28;20033;-50
2024/02/16 05:30:07;;;;;;;8.68;5.50;;;11.50;99.90;;;;;;4995776;28;20029;-45
2024/02/16 05:32:37;;;;;;;11.27;5.68;;;11.60;99.90;;;;;;4995122;28;20022;-49
2024/02/16 05:35:11;;;;;;;10.55;5.75;;;11.60;99.90;;;;;;4995256;28;20026;-47
2024/02/16 05:37:43;;;;;;;6.03;5.00;;;11.60;99.90;;;;;;4994860;28;20520;-47
2024/02/16 05:40:27;;;;;;;10.40;6.35;;;11.50;99.90;;;;;;4993604;28;20034;-49
2024/02/16 05:42:53;;;;;;;9.82;6.13;;;11.60;99.90;;;;;;4994243;28;20492;-50
2024/02/16 05:45:21;;;;;;;8.10;6.07;;;11.50;99.90;;;;;;4994191;28;20403;-50
2024/02/16 05:47:47;;;;;;;9.80;7.30;;;11.60;99.90;;;;;;4994539;28;20033;-47
2024/02/16 05:50:14;;;;;;;12.32;7.15;;;11.60;99.90;;;;;;4993976;28;20514;-47
2024/02/16 05:52:41;;;;;;;9.30;7.07;;;11.70;99.90;;;;;;4994753;28;20403;-51
2024/02/16 05:55:08;;;;;;;9.32;6.85;;;11.70;99.90;;;;;;4993716;28;20026;-44
2024/02/16 05:57:34;;;;;;;12.02;7.25;;;11.60;99.90;;;;;;4977082;28;20125;-53
2024/02/16 06:00:00;;;;;;;12.93;6.50;;;11.50;99.90;;;;;;4994327;28;20027;-50
2024/02/16 06:02:27;;;;;;;11.10;7.15;;;11.50;99.90;;;;;;4994678;28;20033;-47
2024/02/16 06:04:53;;;;;;;17.27;7.55;;;11.50;99.90;;;;;;4994144;28;20030;-47
2024/02/16 06:07:18;;;;;;;8.88;6.60;;;11.40;99.90;;;;;;4994854;28;20105;-51
2024/02/16 06:09:44;;;;;;;9.35;6.32;;;11.40;99.90;;;;;;4994595;28;20554;-50
2024/02/16 06:12:11;;;;;;;11.13;7.30;;;11.30;99.90;;;;;;4994143;28;20559;-50
2024/02/16 06:14:36;;;;;;;11.95;7.20;;;11.40;99.90;;;;;;4994122;28;20410;-47
2024/02/16 06:17:02;;;;;;;14.45;6.93;;;11.30;99.90;;;;;;4993367;28;20113;-52
2024/02/16 06:19:28;;;;;;;11.18;6.68;;;11.20;99.90;;;;;;4993725;28;20026;-49
2024/02/16 06:21:54;;;;;;;9.95;6.25;;;11.20;99.90;;;;;;4993918;28;20042;-46
2024/02/16 06:24:21;;;;;;;12.70;7.00;;;11.20;99.90;;;;;;4993722;28;20054;-47
2024/02/16 06:26:47;;;;;;;8.68;6.22;;;11.20;99.90;;;;;;4993656;28;20045;-53
2024/02/16 06:29:13;;;;;;;12.63;7.07;;;11.20;99.90;;;;;;4993829;28;20126;-47
2024/02/16 06:31:38;;;;;;;11.90;7.25;;;11.30;99.90;;;;;;4993493;28;20033;-52
2024/02/16 06:34:04;;;;;;;13.52;7.65;;;11.30;99.90;;;;;;4993537;28;20404;-47
2024/02/16 06:36:29;;;;;;;11.80;6.22;;;11.30;99.90;;;;;;4993652;28;20506;-46
2024/02/16 06:38:55;;;;;;;10.00;6.75;;;11.40;99.90;;;;;;4993723;28;20034;-52
2024/02/16 06:41:21;;;;;;;16.30;8.20;;;11.40;99.90;;;;;;4993762;28;20049;-50
2024/02/16 06:43:46;;;;;;;18.35;7.45;;;11.40;99.90;;;;;;4992969;28;20484;-48
2024/02/16 06:46:12;;;;;;;11.60;7.35;;;11.40;99.90;;;;;;4992970;28;20038;-50
2024/02/16 06:48:37;;;;;;;9.90;6.47;;;11.40;99.90;;;;;;4993250;28;20420;-48
2024/02/16 06:51:03;;;;;;;8.60;6.70;;;11.40;99.90;;;;;;4992734;28;20117;-47
2024/02/16 06:53:28;;;;;;;13.38;6.90;;;11.50;99.90;;;;;;4992636;28;20031;-46
2024/02/16 06:55:54;;;;;;;14.07;6.75;;;11.50;99.90;;;;;;4992683;28;20420;-49
2024/02/16 06:58:20;;;;;;;10.43;6.28;;;11.60;99.90;;;;;;4992917;28;20032;-49
2024/02/16 07:00:45;;;;;;;11.20;6.82;;;11.60;99.90;;;;;;4992804;28;20034;-49
2024/02/16 07:03:11;;;;;;;11.00;6.57;;;11.60;99.90;;;;;;4992547;28;20174;-47
2024/02/16 07:05:36;;;;;;;12.55;6.50;;;11.70;99.90;;;;;;4993447;28;20038;-54
2024/02/16 07:08:02;;;;;;;10.30;6.10;;;11.70;99.90;;;;;;4992735;28;20487;-55
2024/02/16 07:10:27;;;;;;;17.13;7.13;;;11.80;99.90;;;;;;4992742;28;20034;-50
2024/02/16 07:12:53;;;;;;;7.15;5.93;;;11.80;99.90;;;;;;4992572;28;20479;-47
2024/02/16 07:15:19;;;;;;;17.85;6.07;;;11.80;99.90;;;;;;4992518;28;20049;-49
2024/02/16 07:17:44;;;;;;;14.20;6.78;;;11.80;99.90;;;;;;4992833;28;20037;-54
2024/02/16 07:20:10;;;;;;;7.22;6.00;;;11.80;99.90;;;;;;4992504;28;20610;-51
2024/02/16 07:22:36;;;;;;;10.40;6.25;;;11.80;99.90;;;;;;4992906;28;20022;-50
2024/02/16 07:25:03;;;;;;;10.45;6.38;;;11.90;99.90;;;;;;4992123;28;20398;-50
2024/02/16 07:27:28;;;;;;;11.73;6.10;;;12.00;99.90;;;;;;4992451;28;20105;-52
2024/02/16 07:29:53;;;;;;;8.80;6.32;;;11.90;99.90;;;;;;4992488;28;20030;-49
2024/02/16 07:32:19;;;;;;;10.57;6.20;;;11.90;99.90;;;;;;4992261;28;20034;-51
2024/02/16 07:34:48;;;;;;;12.38;6.88;;;11.90;99.90;;;;;;4975042;28;20580;-49
2024/02/16 07:37:16;;;;;;;10.75;6.60;;;11.90;99.90;;;;;;4974921;28;20403;-50
2024/02/16 07:39:41;;;;;;;7.93;5.93;;;11.90;99.90;;;;;;4991867;28;20511;-47
2024/02/16 07:42:09;;;;;;;10.52;6.78;;;11.80;99.90;;;;;;4992547;28;20085;-52
2024/02/16 07:44:35;;;;;;;11.80;6.65;;;11.90;99.90;;;;;;4992338;28;20415;-50
2024/02/16 07:47:01;;;;;;;8.40;6.82;;;11.80;99.90;;;;;;4992022;28;20555;-52
2024/02/16 07:49:26;;;;;;;12.60;6.45;;;11.80;99.90;;;;;;4992246;28;20117;-52
2024/02/16 07:51:52;;;;;;;10.15;7.32;;;11.80;99.90;;;;;;4991807;28;20072;-49
2024/02/16 07:54:17;;;;;;;8.82;5.85;;;11.90;99.90;;;;;;4991324;28;20034;-47
2024/02/16 07:56:43;;;;;;;9.98;6.75;;;11.90;99.90;;;;;;4991993;28;20033;-49
2024/02/16 07:59:08;;;;;;;9.48;6.45;;;11.90;99.90;;;;;;4991717;28;20034;-49
2024/02/16 08:01:33;;;;;;;9.13;7.00;;;11.90;99.90;;;;;;4992146;28;20137;-52
2024/02/16 08:03:59;;;;;;;10.75;7.05;;;12.00;99.90;;;;;;4995613;28;20117;-49
2024/02/16 08:06:26;;;;;;;11.63;7.82;;;11.90;99.90;;;;;;4995692;28;20484;-50
2024/02/16 08:08:52;;;;;;;9.45;7.07;;;12.00;99.90;;;;;;4995340;28;20515;-49
2024/02/16 08:11:18;;;;;;;13.88;7.68;;;12.00;99.90;;;;;;4995804;28;20215;-51
2024/02/16 08:13:43;;;;;;;14.32;6.78;;;12.00;99.90;;;;;;4995772;28;20033;-51
2024/02/16 08:16:10;;;;;;;28.63;8.25;;;12.10;99.90;;;;;;4995646;28;20026;-49
2024/02/16 08:18:35;;;;;;;15.75;7.00;;;12.10;99.90;;;;;;4991671;28;20022;-51
2024/02/16 08:21:01;;;;;;;14.63;7.07;;;12.20;99.90;;;;;;4992744;28;20069;-50
2024/02/16 08:23:26;;;;;;;12.07;7.88;;;12.20;99.90;;;;;;4976251;28;20026;-49
2024/02/16 08:25:52;;;;;;;10.52;7.50;;;12.20;99.90;;;;;;4975685;28;20023;-54
2024/02/16 08:28:18;;;;;;;12.45;6.90;;;12.40;99.90;;;;;;4976165;28;20038;-53
2024/02/16 08:30:44;;;;;;;14.02;6.90;;;12.40;99.90;;;;;;4975881;28;20030;-53
2024/02/16 08:33:10;;;;;;;12.13;7.28;;;12.50;99.90;;;;;;4980214;28;20042;-51
2024/02/16 08:35:37;;;;;;;8.38;6.63;;;12.50;99.90;;;;;;4972607;28;20062;-54
2024/02/16 08:38:03;;;;;;;16.02;6.82;;;12.50;99.90;;;;;;4975084;28;20031;-52
2024/02/16 08:40:28;;;;;;;7.47;6.32;;;12.50;99.90;;;;;;4975571;28;20031;-53
2024/02/16 08:42:54;;;;;;;7.93;6.18;;;12.60;99.90;;;;;;4975559;28;20110;-51
2024/02/16 08:45:19;;;;;;;13.75;6.30;;;12.70;99.90;;;;;;4975517;28;20026;-53
2024/02/16 08:47:45;;;;;;;11.90;6.45;;;12.70;99.90;;;;;;4975736;28;20038;-51
2024/02/16 08:50:11;;;;;;;14.73;7.63;;;12.80;99.90;;;;;;4975917;28;20480;-52
2024/02/16 08:52:37;;;;;;;13.55;7.38;;;12.80;99.90;;;;;;4975587;28;20511;-54
2024/02/16 08:55:03;;;;;;;10.10;6.70;;;12.70;99.90;;;;;;4975222;28;20030;-52
2024/02/16 08:57:28;;;;;;;13.18;6.90;;;12.70;99.90;;;;;;4975722;28;20027;-55
2024/02/16 08:59:56;;;;;;;10.30;7.30;;;12.70;99.90;;;;;;4975746;28;20049;-49
2024/02/16 09:02:22;;;;;;;16.42;6.68;;;12.70;99.90;;;;;;4978814;28;20523;-52
2024/02/16 09:04:47;;;;;;;12.95;7.43;;;12.60;99.90;;;;;;4986984;28;20030;-47
2024/02/16 09:07:13;;;;;;;16.20;7.68;;;12.60;99.90;;;;;;4975917;28;20025;-51
2024/02/16 09:09:38;;;;;;;14.70;7.57;;;12.70;99.90;;;;;;4983994;28;20480;-52
2024/02/16 09:12:04;;;;;;;8.55;6.43;;;12.80;99.90;;;;;;4995000;28;20031;-57
2024/02/16 09:14:29;;;;;;;11.65;6.70;;;12.80;99.90;;;;;;4993514;28;20034;-49
2024/02/16 09:16:55;;;;;;;10.25;6.45;;;12.90;99.90;;;;;;4994774;28;20030;-56
2024/02/16 09:19:21;;;;;;;11.70;6.57;;;12.90;99.90;;;;;;4994629;28;20530;-52
2024/02/16 09:21:46;;;;;;;10.40;6.22;;;13.10;99.90;;;;;;4993739;28;20498;-49
2024/02/16 09:24:17;;;;;;;10.32;6.22;;;13.20;99.90;;;;;;4992667;28;20105;-48
2024/02/16 09:26:47;;;;;;;9.73;6.60;;;13.20;99.90;;;;;;4992922;28;20018;-50
2024/02/16 09:29:13;;;;;;;10.75;6.63;;;13.20;99.90;;;;;;4992656;28;21287;-54
2024/02/16 09:31:40;;;;;;;10.07;6.97;;;13.30;99.90;;;;;;4982903;28;20081;-49
2024/02/16 09:34:05;;;;;;;9.70;6.97;;;13.30;99.90;;;;;;4979165;28;20046;-53
2024/02/16 09:36:31;;;;;;;8.60;6.03;;;13.30;99.90;;;;;;4992610;28;20092;-49
2024/02/16 09:38:57;;;;;;;13.38;6.43;;;13.30;99.90;;;;;;4994414;28;20400;-52
2024/02/16 09:41:22;;;;;;;13.50;5.82;;;13.30;99.90;;;;;;4994381;28;20019;-48
2024/02/16 09:43:48;;;;;;;15.57;6.97;;;13.30;99.90;;;;;;4994048;28;20153;-51
2024/02/16 09:46:16;;;;;;;7.15;6.10;;;13.30;99.90;;;;;;4994177;28;20455;-52
2024/02/16 09:48:48;;;;;;;10.45;7.38;;;13.40;99.90;;;;;;4994181;28;20113;-50
2024/02/16 09:51:13;;;;;;;8.43;6.22;;;13.40;99.90;;;;;;4994526;28;20022;-49
2024/02/16 09:53:40;;;;;;;11.55;6.38;;;13.40;99.90;;;;;;4994006;28;20037;-51
2024/02/16 09:56:08;;;;;;;9.30;6.30;;;13.40;99.90;;;;;;4994065;28;20022;-49
2024/02/16 09:58:34;;;;;;;11.43;6.47;;;13.50;99.90;;;;;;4993961;28;20027;-49
2024/02/16 10:01:00;;;;;;;16.55;6.85;;;13.50;99.90;;;;;;4994116;28;20331;-49
2024/02/16 10:03:32;;;;;;;11.30;6.68;;;13.50;99.90;;;;;;4993297;28;20484;-54
2024/02/16 10:06:11;;;;;;;12.98;6.57;;;13.60;99.90;;;;;;4992891;28;20026;-52
2024/02/16 10:08:51;;;;;;;10.02;6.10;;;13.60;99.90;;;;;;4992829;28;20034;-50
2024/02/16 10:11:20;;;;;;;9.60;6.03;;;13.60;99.90;;;;;;5002613;28;20026;-59
2024/02/16 10:13:59;;;;;;;11.40;6.70;;;13.60;99.90;;;;;;4979254;28;20034;-56
2024/02/16 10:16:27;;;;;;;12.30;6.32;;;13.60;99.90;;;;;;4985148;28;20056;-58
2024/02/16 10:19:14;;;;;;;11.55;6.95;;;13.60;99.90;;;;;;4992585;28;20018;-52
2024/02/16 10:21:40;;;;;;;9.38;6.20;;;13.60;99.90;;;;;;4981791;28;20500;-56
2024/02/16 10:24:08;;;;;;;9.55;5.90;;;13.70;99.90;;;;;;4992325;28;20022;-57
2024/02/16 10:26:37;;;;;;;15.77;6.65;;;13.70;99.90;;;;;;4991910;28;20027;-58
2024/02/16 10:29:08;;;;;;;9.68;6.65;;;13.70;99.90;;;;;;5003892;28;20526;-58
2024/02/16 10:31:34;;;;;;;11.68;6.70;;;13.70;99.90;;;;;;4989191;28;20466;-56
2024/02/16 10:34:05;;;;;;;11.52;7.00;;;13.70;99.90;;;;;;5002505;28;20118;-52
2024/02/16 10:36:32;;;;;;;10.75;7.03;;;13.90;99.90;;;;;;4992199;28;20026;-54
2024/02/16 10:38:59;;;;;;;8.70;5.75;;;14.00;99.90;;;;;;4992263;28;20022;-57
2024/02/16 10:41:28;;;;;;;11.52;6.82;;;14.20;99.90;;;;;;4992335;28;20026;-57
2024/02/16 10:43:54;;;;;;;11.20;6.97;;;14.40;99.90;;;;;;4992246;28;20030;-58
2024/02/16 10:46:20;;;;;;;7.28;6.15;;;14.50;99.90;;;;;;4991864;28;20033;-57
2024/02/16 10:48:46;;;;;;;10.35;6.32;;;14.60;99.90;;;;;;5007146;28;20022;-55
2024/02/16 10:51:13;;;;;;;8.57;5.90;;;14.70;99.90;;;;;;4991822;28;20261;-58
2024/02/16 10:53:39;;;;;;;14.80;6.75;;;14.80;99.90;;;;;;4991882;28;20038;-52
2024/02/16 10:56:07;;;;;;;12.45;6.63;;;14.80;99.90;;;;;;4985132;28;20029;-54
2024/02/16 10:58:33;;;;;;;8.80;5.25;;;14.90;99.90;;;;;;4992598;28;20030;-56
2024/02/16 11:01:09;;;;;;;9.27;5.45;;;15.00;99.90;;;;;;4984527;28;20034;-58
2024/02/16 11:03:38;;;;;;;9.82;5.22;;;15.10;99.90;;;;;;4973993;28;1018855;-61
2024/02/16 11:06:16;;;;;;;12.02;5.82;;;15.10;99.90;;;;;;5012247;28;20018;-60
2024/02/16 11:08:41;;;;;;;9.30;5.10;;;15.20;99.90;;;;;;5012182;28;20022;-58
2024/02/16 11:11:09;;;;;;;13.30;5.13;;;15.30;99.90;;;;;;5012283;28;20081;-55
2024/02/16 11:13:36;;;;;;;8.13;4.70;;;15.50;99.90;;;;;;5012121;28;20129;-60
2024/02/16 11:16:09;;;;;;;10.43;4.47;;;15.60;99.90;;;;;;5012074;28;20026;-58
2024/02/16 11:18:39;;;;;;;8.05;4.90;;;15.70;99.90;;;;;;5011920;28;20032;-56
2024/02/16 11:21:06;;;;;;;10.90;5.22;;;15.80;99.90;;;;;;5011973;28;20022;-60
2024/02/16 11:23:35;;;;;;;10.18;4.60;;;15.80;99.90;;;;;;5010772;28;20022;-59
2024/02/16 11:26:02;;;;;;;6.63;4.13;;;15.70;99.90;;;;;;5003371;28;20045;-61
2024/02/16 11:28:33;;;;;;;4.88;4.38;;;15.60;99.90;;;;;;4991252;28;20031;-58
2024/02/16 11:30:59;;;;;;;7.60;4.25;;;15.50;99.90;;;;;;4992648;28;20026;-59
2024/02/16 11:33:27;;;;;;;10.52;4.97;;;15.40;99.90;;;;;;4991038;28;20061;-58
2024/02/16 11:35:57;;;;;;;6.18;3.95;;;15.40;99.90;;;;;;4992010;28;20022;-60
2024/02/16 11:38:23;;;;;;;7.53;5.05;;;15.40;99.90;;;;;;4991399;28;20495;-57
2024/02/16 11:41:00;;;;;;;6.60;3.58;;;15.30;99.90;;;;;;4992480;28;20038;-58
2024/02/16 11:43:26;;;;;;;9.85;4.05;;;15.40;99.90;;;;;;4992011;28;20024;-60
2024/02/16 11:45:52;;;;;;;7.75;3.88;;;15.40;99.90;;;;;;4992173;28;20106;-58
2024/02/16 11:48:23;;;;;;;6.70;4.10;;;15.30;99.90;;;;;;4992281;28;20624;-59
2024/02/16 11:51:02;;;;;;;7.95;3.10;;;15.30;99.90;;;;;;4992088;28;20085;-61
2024/02/16 11:53:29;;;;;;;8.57;3.80;;;15.20;99.90;;;;;;4992001;28;20109;-59
2024/02/16 11:55:55;;;;;;;6.65;3.70;;;15.30;99.90;;;;;;4991566;28;20089;-60
2024/02/16 11:58:22;;;;;;;24.10;15.00;;;15.30;99.90;;;;;;4992062;28;20034;-60
2024/02/16 12:00:48;;;;;;;64.68;40.20;;;15.20;99.90;;;;;;4991996;28;20110;-59
2024/02/16 12:03:24;;;;;;;7.10;3.00;;;15.30;99.90;;;;;;4996634;28;20052;-62
2024/02/16 12:05:51;;;;;;;5.78;3.33;;;15.40;99.90;;;;;;5011669;28;20406;-56
2024/02/16 12:08:17;;;;;;;4.25;3.15;;;15.40;99.90;;;;;;5005536;28;20022;-56
2024/02/16 12:10:43;;;;;;;5.70;3.83;;;15.60;99.90;;;;;;4991545;28;20546;-58
2024/02/16 12:13:09;;;;;;;3.75;2.53;;;15.60;99.90;;;;;;4991408;28;20178;-54
2024/02/16 12:15:38;;;;;;;5.18;2.95;;;15.70;99.90;;;;;;4991390;28;20515;-52
2024/02/16 12:18:03;;;;;;;4.80;2.72;;;15.80;99.90;;;;;;4991843;28;20038;-55
2024/02/16 12:20:31;;;;;;;4.38;3.03;;;15.80;99.90;;;;;;4991708;28;20433;-54
2024/02/16 12:22:58;;;;;;;6.43;2.97;;;15.80;99.90;;;;;;4991619;28;20029;-50
2024/02/16 12:25:25;;;;;;;5.47;2.83;;;15.90;99.90;;;;;;4991274;28;20553;-55
2024/02/16 12:27:50;;;;;;;9.90;2.50;;;15.90;99.90;;;;;;4991761;28;20034;-52
2024/02/16 12:30:16;;;;;;;4.32;2.38;;;15.90;99.90;;;;;;4991415;28;20391;-53
2024/02/16 12:32:41;;;;;;;8.02;2.50;;;16.00;99.90;;;;;;4991676;28;20042;-58
2024/02/16 12:35:08;;;;;;;6.50;2.47;;;16.00;99.90;;;;;;4991250;28;20484;-55
2024/02/16 12:37:35;;;;;;;6.93;2.60;;;16.10;99.90;;;;;;4986662;28;20117;-56
2024/02/16 12:40:01;;;;;;;4.28;2.20;;;16.20;99.90;;;;;;4991755;28;20771;-56